sensor_id;sensor_type;location;lat;lon;timestamp;pressure;altitude;pressure_sealevel;temperature;humidity
49194;BME280;35029;50.804;12.866;2023-05-29T00:02:08;97975.06;;;10.82;75.89
49194;BME280;35029;50.804;12.866;2023-05-29T00:04:33;97967.88;;;10.76;76.48
49194;BME280;35029;50.804;12.866;2023-05-29T00:06:59;97983.34;;;10.73;76.64
49194;BME280;35029;50.804;12.866;2023-05-29T00:09:25;97985.69;;;10.82;76.60
49194;BME280;35029;50.804;12.866;2023-05-29T00:11:51;97970.47;;;10.70;76.07
49194;BME280;35029;50.804;12.866;2023-05-29T00:14:21;97974.75;;;10.71;76.63
49194;BME280;35029;50.804;12.866;2023-05-29T00:16:48;97979.53;;;10.82;76.15
49194;BME280;35029;50.804;12.866;2023-05-29T00:19:14;97972.31;;;10.69;75.78
49194;BME280;35029;50.804;12.866;2023-05-29T00:21:42;97982.00;;;10.62;76.51
49194;BME280;35029;50.804;12.866;2023-05-29T00:24:08;97970.28;;;10.49;76.59
49194;BME280;35029;50.804;12.866;2023-05-29T00:26:34;97973.75;;;10.50;76.76
49194;BME280;35029;50.804;12.866;2023-05-29T00:29:00;97976.88;;;10.39;76.77
49194;BME280;35029;50.804;12.866;2023-05-29T00:31:26;97978.72;;;10.38;78.21
49194;BME280;35029;50.804;12.866;2023-05-29T00:33:51;97977.16;;;10.44;77.42
49194;BME280;35029;50.804;12.866;2023-05-29T00:36:17;97974.25;;;10.24;77.42
49194;BME280;35029;50.804;12.866;2023-05-29T00:38:44;97969.03;;;10.30;77.89
49194;BME280;35029;50.804;12.866;2023-05-29T00:41:14;97965.38;;;10.31;78.19
49194;BME280;35029;50.804;12.866;2023-05-29T00:43:41;97949.03;;;10.28;77.35
49194;BME280;35029;50.804;12.866;2023-05-29T00:46:07;97964.75;;;10.44;77.02
49194;BME280;35029;50.804;12.866;2023-05-29T00:48:33;97946.22;;;10.29;76.63
49194;BME280;35029;50.804;12.866;2023-05-29T00:50:59;97967.03;;;10.32;77.21
49194;BME280;35029;50.804;12.866;2023-05-29T00:53:25;97945.06;;;10.17;77.43
49194;BME280;35029;50.804;12.866;2023-05-29T00:55:52;97963.38;;;10.34;77.46
49194;BME280;35029;50.804;12.866;2023-05-29T00:58:18;97959.19;;;10.24;77.53
49194;BME280;35029;50.804;12.866;2023-05-29T01:00:45;97946.00;;;10.09;77.10
49194;BME280;35029;50.804;12.866;2023-05-29T01:03:12;97963.09;;;10.07;77.69
49194;BME280;35029;50.804;12.866;2023-05-29T01:05:40;97961.50;;;10.12;77.92
49194;BME280;35029;50.804;12.866;2023-05-29T01:08:06;97960.53;;;9.98;77.85
49194;BME280;35029;50.804;12.866;2023-05-29T01:10:32;97927.94;;;9.61;78.00
49194;BME280;35029;50.804;12.866;2023-05-29T01:13:18;97969.13;;;9.86;79.39
49194;BME280;35029;50.804;12.866;2023-05-29T01:20:44;97976.34;;;9.92;78.27
49194;BME280;35029;50.804;12.866;2023-05-29T01:28:41;97969.69;;;9.81;78.91
49194;BME280;35029;50.804;12.866;2023-05-29T01:31:09;97975.00;;;9.81;78.19
49194;BME280;35029;50.804;12.866;2023-05-29T01:33:39;97942.63;;;9.64;77.85
49194;BME280;35029;50.804;12.866;2023-05-29T01:36:10;97971.81;;;9.71;78.43
49194;BME280;35029;50.804;12.866;2023-05-29T01:38:36;97962.97;;;9.63;78.92
49194;BME280;35029;50.804;12.866;2023-05-29T01:41:03;97971.56;;;9.66;78.78
49194;BME280;35029;50.804;12.866;2023-05-29T01:43:29;97980.41;;;9.58;79.26
49194;BME280;35029;50.804;12.866;2023-05-29T01:45:55;97976.09;;;9.57;79.79
49194;BME280;35029;50.804;12.866;2023-05-29T01:48:22;97964.44;;;9.51;79.49
49194;BME280;35029;50.804;12.866;2023-05-29T01:50:48;97963.16;;;9.47;79.32
49194;BME280;35029;50.804;12.866;2023-05-29T01:53:14;97972.38;;;9.36;79.01
49194;BME280;35029;50.804;12.866;2023-05-29T01:55:40;97970.09;;;9.33;80.07
49194;BME280;35029;50.804;12.866;2023-05-29T01:58:07;97965.34;;;9.28;80.35
49194;BME280;35029;50.804;12.866;2023-05-29T02:00:32;97963.03;;;9.10;79.62
49194;BME280;35029;50.804;12.866;2023-05-29T02:02:58;97983.38;;;9.10;80.15
49194;BME280;35029;50.804;12.866;2023-05-29T02:05:23;97980.47;;;9.20;79.89
49194;BME280;35029;50.804;12.866;2023-05-29T02:07:49;97974.38;;;9.34;79.57
49194;BME280;35029;50.804;12.866;2023-05-29T02:10:15;97973.91;;;9.30;79.87
49194;BME280;35029;50.804;12.866;2023-05-29T02:12:40;97959.78;;;9.23;79.38
49194;BME280;35029;50.804;12.866;2023-05-29T02:15:06;97971.44;;;9.29;79.60
49194;BME280;35029;50.804;12.866;2023-05-29T02:17:32;97970.97;;;9.10;79.99
49194;BME280;35029;50.804;12.866;2023-05-29T02:20:01;97976.44;;;9.09;79.64
49194;BME280;35029;50.804;12.866;2023-05-29T02:22:26;97957.47;;;9.05;79.28
49194;BME280;35029;50.804;12.866;2023-05-29T02:24:52;97956.13;;;9.09;78.76
49194;BME280;35029;50.804;12.866;2023-05-29T02:27:18;97966.97;;;9.14;78.33
49194;BME280;35029;50.804;12.866;2023-05-29T02:29:43;97980.38;;;9.13;78.90
49194;BME280;35029;50.804;12.866;2023-05-29T02:32:09;97978.56;;;9.13;79.63
49194;BME280;35029;50.804;12.866;2023-05-29T02:34:35;97977.91;;;9.11;79.08
49194;BME280;35029;50.804;12.866;2023-05-29T02:37:01;97982.00;;;8.99;80.01
49194;BME280;35029;50.804;12.866;2023-05-29T02:39:28;97970.34;;;9.08;79.83
49194;BME280;35029;50.804;12.866;2023-05-29T02:41:53;97978.16;;;9.02;79.74
49194;BME280;35029;50.804;12.866;2023-05-29T02:44:20;97981.19;;;8.99;80.31
49194;BME280;35029;50.804;12.866;2023-05-29T02:46:45;97978.44;;;8.92;79.87
49194;BME280;35029;50.804;12.866;2023-05-29T02:49:11;97960.19;;;8.82;79.96
49194;BME280;35029;50.804;12.866;2023-05-29T02:51:37;97987.63;;;8.96;79.08
49194;BME280;35029;50.804;12.866;2023-05-29T02:54:02;97978.03;;;8.80;79.51
49194;BME280;35029;50.804;12.866;2023-05-29T02:56:28;97990.25;;;8.81;80.56
49194;BME280;35029;50.804;12.866;2023-05-29T02:58:53;97986.88;;;8.64;81.07
49194;BME280;35029;50.804;12.866;2023-05-29T03:01:19;97976.25;;;8.49;81.46
49194;BME280;35029;50.804;12.866;2023-05-29T03:03:45;97985.16;;;8.56;82.10
49194;BME280;35029;50.804;12.866;2023-05-29T03:06:11;97985.91;;;8.65;82.10
49194;BME280;35029;50.804;12.866;2023-05-29T03:08:39;97991.53;;;8.85;81.56
49194;BME280;35029;50.804;12.866;2023-05-29T03:11:11;97991.41;;;8.78;81.40
49194;BME280;35029;50.804;12.866;2023-05-29T03:13:37;97991.94;;;8.74;81.52
49194;BME280;35029;50.804;12.866;2023-05-29T03:16:06;97978.84;;;8.57;80.86
49194;BME280;35029;50.804;12.866;2023-05-29T03:18:35;97965.13;;;8.62;80.91
49194;BME280;35029;50.804;12.866;2023-05-29T03:21:01;97966.03;;;8.69;81.45
49194;BME280;35029;50.804;12.866;2023-05-29T03:23:28;97988.84;;;8.70;81.27
49194;BME280;35029;50.804;12.866;2023-05-29T03:25:53;97967.16;;;8.52;82.60
49194;BME280;35029;50.804;12.866;2023-05-29T03:28:19;97984.44;;;8.62;82.09
49194;BME280;35029;50.804;12.866;2023-05-29T03:30:46;97982.06;;;8.44;82.89
49194;BME280;35029;50.804;12.866;2023-05-29T03:33:14;97969.38;;;8.40;83.43
49194;BME280;35029;50.804;12.866;2023-05-29T03:36:06;97990.56;;;8.63;83.94
49194;BME280;35029;50.804;12.866;2023-05-29T03:38:33;97999.22;;;8.72;82.43
49194;BME280;35029;50.804;12.866;2023-05-29T03:40:59;97978.16;;;8.63;83.82
49194;BME280;35029;50.804;12.866;2023-05-29T03:43:25;97997.88;;;8.76;82.02
49194;BME280;35029;50.804;12.866;2023-05-29T03:45:51;98003.03;;;8.69;82.47
49194;BME280;35029;50.804;12.866;2023-05-29T03:48:17;98009.50;;;8.67;84.18
49194;BME280;35029;50.804;12.866;2023-05-29T03:50:46;98020.13;;;8.58;84.90
49194;BME280;35029;50.804;12.866;2023-05-29T03:53:12;98020.63;;;8.62;84.92
49194;BME280;35029;50.804;12.866;2023-05-29T03:55:37;98031.13;;;8.70;84.96
49194;BME280;35029;50.804;12.866;2023-05-29T03:58:06;98026.94;;;8.76;85.45
49194;BME280;35029;50.804;12.866;2023-05-29T04:00:32;98004.94;;;8.84;84.16
49194;BME280;35029;50.804;12.866;2023-05-29T04:03:01;98024.28;;;8.99;84.34
49194;BME280;35029;50.804;12.866;2023-05-29T04:05:27;98022.28;;;9.01;83.97
49194;BME280;35029;50.804;12.866;2023-05-29T04:07:52;98019.13;;;9.06;84.22
49194;BME280;35029;50.804;12.866;2023-05-29T04:10:18;98029.06;;;9.19;84.55
49194;BME280;35029;50.804;12.866;2023-05-29T04:12:43;98017.88;;;9.17;83.54
49194;BME280;35029;50.804;12.866;2023-05-29T04:15:09;98022.41;;;9.23;84.15
49194;BME280;35029;50.804;12.866;2023-05-29T04:17:34;98035.03;;;9.36;85.05
49194;BME280;35029;50.804;12.866;2023-05-29T04:20:00;98034.50;;;9.40;85.09
49194;BME280;35029;50.804;12.866;2023-05-29T04:22:33;98021.16;;;9.34;85.88
49194;BME280;35029;50.804;12.866;2023-05-29T04:25:00;98031.75;;;9.48;86.58
49194;BME280;35029;50.804;12.866;2023-05-29T04:27:26;98035.50;;;9.54;86.95
49194;BME280;35029;50.804;12.866;2023-05-29T04:29:52;98035.41;;;9.62;86.60
49194;BME280;35029;50.804;12.866;2023-05-29T04:32:19;98016.06;;;9.47;88.16
49194;BME280;35029;50.804;12.866;2023-05-29T04:34:45;98052.84;;;9.72;87.91
49194;BME280;35029;50.804;12.866;2023-05-29T04:37:13;98038.34;;;9.68;87.38
49194;BME280;35029;50.804;12.866;2023-05-29T04:39:41;98051.16;;;9.79;87.77
49194;BME280;35029;50.804;12.866;2023-05-29T04:42:07;98040.81;;;9.84;87.89
49194;BME280;35029;50.804;12.866;2023-05-29T04:44:34;98047.13;;;9.98;88.64
49194;BME280;35029;50.804;12.866;2023-05-29T04:47:00;98035.78;;;10.04;88.29
49194;BME280;35029;50.804;12.866;2023-05-29T04:49:29;98050.00;;;10.18;88.51
49194;BME280;35029;50.804;12.866;2023-05-29T04:51:55;98053.38;;;10.27;89.41
49194;BME280;35029;50.804;12.866;2023-05-29T04:54:22;98048.81;;;10.36;88.65
49194;BME280;35029;50.804;12.866;2023-05-29T04:56:51;98050.34;;;10.45;89.17
49194;BME280;35029;50.804;12.866;2023-05-29T04:59:22;98055.16;;;10.56;88.69
49194;BME280;35029;50.804;12.866;2023-05-29T05:01:47;98053.22;;;10.65;88.97
49194;BME280;35029;50.804;12.866;2023-05-29T05:04:13;98044.09;;;10.68;88.90
49194;BME280;35029;50.804;12.866;2023-05-29T05:06:39;98054.44;;;10.84;89.46
49194;BME280;35029;50.804;12.866;2023-05-29T05:09:05;98058.41;;;10.95;89.95
49194;BME280;35029;50.804;12.866;2023-05-29T05:11:31;98051.28;;;10.95;90.21
49194;BME280;35029;50.804;12.866;2023-05-29T05:13:56;98065.09;;;11.12;90.05
49194;BME280;35029;50.804;12.866;2023-05-29T05:16:22;98043.69;;;11.14;90.08
49194;BME280;35029;50.804;12.866;2023-05-29T05:18:47;98066.25;;;11.31;89.61
49194;BME280;35029;50.804;12.866;2023-05-29T05:21:13;98062.22;;;11.36;89.13
49194;BME280;35029;50.804;12.866;2023-05-29T05:23:39;98066.22;;;11.53;89.36
49194;BME280;35029;50.804;12.866;2023-05-29T05:26:06;98071.38;;;11.61;89.32
49194;BME280;35029;50.804;12.866;2023-05-29T05:28:34;98069.00;;;11.73;88.83
49194;BME280;35029;50.804;12.866;2023-05-29T05:31:01;98075.63;;;11.84;88.06
49194;BME280;35029;50.804;12.866;2023-05-29T05:33:30;98068.78;;;11.96;88.29
49194;BME280;35029;50.804;12.866;2023-05-29T05:35:56;98067.59;;;12.06;87.63
49194;BME280;35029;50.804;12.866;2023-05-29T05:38:21;98071.53;;;12.16;87.20
49194;BME280;35029;50.804;12.866;2023-05-29T05:40:47;98049.03;;;12.12;85.98
49194;BME280;35029;50.804;12.866;2023-05-29T05:43:21;98064.03;;;12.33;85.79
49194;BME280;35029;50.804;12.866;2023-05-29T05:46:23;98081.91;;;12.53;85.65
49194;BME280;35029;50.804;12.866;2023-05-29T05:48:48;98077.44;;;12.67;85.15
49194;BME280;35029;50.804;12.866;2023-05-29T05:51:15;98082.38;;;12.77;85.08
49194;BME280;35029;50.804;12.866;2023-05-29T05:53:41;98085.50;;;12.87;84.13
49194;BME280;35029;50.804;12.866;2023-05-29T05:56:07;98084.66;;;12.93;82.98
49194;BME280;35029;50.804;12.866;2023-05-29T05:58:34;98069.13;;;12.97;82.59
49194;BME280;35029;50.804;12.866;2023-05-29T06:01:00;98081.00;;;13.08;81.29
49194;BME280;35029;50.804;12.866;2023-05-29T06:03:26;98081.22;;;13.19;80.02
49194;BME280;35029;50.804;12.866;2023-05-29T06:05:57;98087.75;;;13.30;78.87
49194;BME280;35029;50.804;12.866;2023-05-29T06:08:22;98091.66;;;13.34;79.38
49194;BME280;35029;50.804;12.866;2023-05-29T06:10:50;98093.75;;;13.39;78.74
49194;BME280;35029;50.804;12.866;2023-05-29T06:13:16;98078.38;;;13.41;77.10
49194;BME280;35029;50.804;12.866;2023-05-29T06:15:49;98089.03;;;13.55;75.94
49194;BME280;35029;50.804;12.866;2023-05-29T06:18:15;98093.72;;;13.66;74.86
49194;BME280;35029;50.804;12.866;2023-05-29T06:20:42;98098.84;;;13.74;72.88
49194;BME280;35029;50.804;12.866;2023-05-29T06:23:07;98094.56;;;13.80;72.00
49194;BME280;35029;50.804;12.866;2023-05-29T06:25:34;98098.22;;;13.92;70.75
49194;BME280;35029;50.804;12.866;2023-05-29T06:28:00;98094.91;;;13.97;68.89
49194;BME280;35029;50.804;12.866;2023-05-29T06:30:27;98096.34;;;14.06;67.64
49194;BME280;35029;50.804;12.866;2023-05-29T06:32:52;98099.38;;;14.16;66.34
49194;BME280;35029;50.804;12.866;2023-05-29T06:35:23;98111.00;;;14.35;66.70
49194;BME280;35029;50.804;12.866;2023-05-29T06:37:49;98103.19;;;14.41;67.40
49194;BME280;35029;50.804;12.866;2023-05-29T06:40:14;98098.63;;;14.48;65.09
49194;BME280;35029;50.804;12.866;2023-05-29T06:42:44;98091.25;;;14.50;64.84
49194;BME280;35029;50.804;12.866;2023-05-29T06:45:13;98085.69;;;14.58;63.91
49194;BME280;35029;50.804;12.866;2023-05-29T06:47:41;98099.56;;;14.74;64.72
49194;BME280;35029;50.804;12.866;2023-05-29T06:50:08;98109.56;;;14.92;64.55
49194;BME280;35029;50.804;12.866;2023-05-29T06:52:35;98117.06;;;15.08;64.03
49194;BME280;35029;50.804;12.866;2023-05-29T06:55:25;98107.94;;;15.16;63.62
49194;BME280;35029;50.804;12.866;2023-05-29T06:57:52;98092.41;;;15.06;61.46
49194;BME280;35029;50.804;12.866;2023-05-29T07:00:18;98104.66;;;15.20;61.63
49194;BME280;35029;50.804;12.866;2023-05-29T07:02:53;98108.63;;;15.36;62.11
49194;BME280;35029;50.804;12.866;2023-05-29T07:05:20;98116.97;;;15.47;64.81
49194;BME280;35029;50.804;12.866;2023-05-29T07:07:45;98115.41;;;15.64;64.19
49194;BME280;35029;50.804;12.866;2023-05-29T07:10:12;98096.66;;;15.71;63.14
49194;BME280;35029;50.804;12.866;2023-05-29T07:12:37;98114.69;;;16.01;62.73
49194;BME280;35029;50.804;12.866;2023-05-29T07:15:04;98104.66;;;15.96;57.63
49194;BME280;35029;50.804;12.866;2023-05-29T07:17:30;98119.47;;;16.17;58.17
49194;BME280;35029;50.804;12.866;2023-05-29T07:20:07;98106.09;;;16.17;58.29
49194;BME280;35029;50.804;12.866;2023-05-29T07:22:34;98121.53;;;16.34;58.07
49194;BME280;35029;50.804;12.866;2023-05-29T07:25:01;98126.59;;;16.42;54.85
49194;BME280;35029;50.804;12.866;2023-05-29T07:27:26;98127.69;;;16.53;57.69
49194;BME280;35029;50.804;12.866;2023-05-29T07:29:52;98120.78;;;16.64;58.19
49194;BME280;35029;50.804;12.866;2023-05-29T07:32:18;98124.16;;;16.71;56.81
49194;BME280;35029;50.804;12.866;2023-05-29T07:34:43;98115.50;;;16.57;55.75
49194;BME280;35029;50.804;12.866;2023-05-29T07:37:11;98128.03;;;16.75;56.74
49194;BME280;35029;50.804;12.866;2023-05-29T07:39:38;98112.50;;;16.84;57.46
49194;BME280;35029;50.804;12.866;2023-05-29T07:42:24;98116.19;;;16.83;56.04
49194;BME280;35029;50.804;12.866;2023-05-29T07:44:50;98139.00;;;17.04;55.23
49194;BME280;35029;50.804;12.866;2023-05-29T07:47:18;98141.72;;;17.16;55.36
49194;BME280;35029;50.804;12.866;2023-05-29T07:49:46;98139.31;;;17.26;53.71
49194;BME280;35029;50.804;12.866;2023-05-29T07:52:12;98143.63;;;17.27;52.90
49194;BME280;35029;50.804;12.866;2023-05-29T07:54:38;98144.69;;;17.38;52.98
49194;BME280;35029;50.804;12.866;2023-05-29T07:57:06;98131.63;;;17.30;51.56
49194;BME280;35029;50.804;12.866;2023-05-29T07:59:38;98139.34;;;17.38;52.90
49194;BME280;35029;50.804;12.866;2023-05-29T08:02:05;98127.34;;;17.40;52.86
49194;BME280;35029;50.804;12.866;2023-05-29T08:04:54;98142.84;;;17.50;49.02
49194;BME280;35029;50.804;12.866;2023-05-29T08:07:22;98142.19;;;17.67;50.10
49194;BME280;35029;50.804;12.866;2023-05-29T08:09:48;98141.72;;;17.82;49.60
49194;BME280;35029;50.804;12.866;2023-05-29T08:12:14;98142.47;;;18.01;52.49
49194;BME280;35029;50.804;12.866;2023-05-29T08:14:42;98152.16;;;18.14;49.88
49194;BME280;35029;50.804;12.866;2023-05-29T08:17:07;98145.94;;;18.25;49.93
49194;BME280;35029;50.804;12.866;2023-05-29T08:19:33;98139.53;;;18.26;49.75
49194;BME280;35029;50.804;12.866;2023-05-29T08:21:59;98143.59;;;18.40;51.45
49194;BME280;35029;50.804;12.866;2023-05-29T08:24:25;98151.50;;;18.47;47.37
49194;BME280;35029;50.804;12.866;2023-05-29T08:26:50;98150.94;;;18.57;48.96
49194;BME280;35029;50.804;12.866;2023-05-29T08:29:16;98147.94;;;18.70;49.86
49194;BME280;35029;50.804;12.866;2023-05-29T08:31:41;98148.78;;;18.71;45.88
49194;BME280;35029;50.804;12.866;2023-05-29T08:34:07;98145.25;;;18.70;47.16
49194;BME280;35029;50.804;12.866;2023-05-29T08:36:33;98146.03;;;18.83;47.71
49194;BME280;35029;50.804;12.866;2023-05-29T08:38:58;98148.06;;;18.75;47.55
49194;BME280;35029;50.804;12.866;2023-05-29T08:41:37;98138.34;;;18.86;45.88
49194;BME280;35029;50.804;12.866;2023-05-29T08:44:07;98137.09;;;19.06;48.96
49194;BME280;35029;50.804;12.866;2023-05-29T08:46:33;98114.50;;;19.19;48.53
49194;BME280;35029;50.804;12.866;2023-05-29T08:49:01;98133.09;;;19.37;48.28
49194;BME280;35029;50.804;12.866;2023-05-29T08:51:36;98143.03;;;19.37;45.09
49194;BME280;35029;50.804;12.866;2023-05-29T08:54:02;98127.25;;;19.40;46.06
49194;BME280;35029;50.804;12.866;2023-05-29T08:56:28;98134.91;;;19.49;45.81
49194;BME280;35029;50.804;12.866;2023-05-29T08:58:55;98114.84;;;19.39;46.34
49194;BME280;35029;50.804;12.866;2023-05-29T09:01:23;98142.63;;;19.45;44.41
49194;BME280;35029;50.804;12.866;2023-05-29T09:03:55;98124.25;;;19.54;44.67
49194;BME280;35029;50.804;12.866;2023-05-29T09:06:22;98119.72;;;19.42;45.97
49194;BME280;35029;50.804;12.866;2023-05-29T09:08:48;98139.28;;;19.55;44.74
49194;BME280;35029;50.804;12.866;2023-05-29T09:11:15;98140.28;;;19.66;44.19
49194;BME280;35029;50.804;12.866;2023-05-29T09:13:47;98133.03;;;19.83;44.20
49194;BME280;35029;50.804;12.866;2023-05-29T09:16:12;98142.66;;;19.96;44.80
49194;BME280;35029;50.804;12.866;2023-05-29T09:18:39;98134.66;;;20.01;42.77
49194;BME280;35029;50.804;12.866;2023-05-29T09:21:07;98123.16;;;19.89;44.24
49194;BME280;35029;50.804;12.866;2023-05-29T09:23:35;98138.19;;;20.24;44.79
49194;BME280;35029;50.804;12.866;2023-05-29T09:26:02;98139.16;;;20.35;44.17
49194;BME280;35029;50.804;12.866;2023-05-29T09:28:30;98137.41;;;20.46;42.72
49194;BME280;35029;50.804;12.866;2023-05-29T09:30:56;98134.28;;;20.54;43.13
49194;BME280;35029;50.804;12.866;2023-05-29T09:33:22;98133.47;;;20.53;43.37
49194;BME280;35029;50.804;12.866;2023-05-29T09:35:49;98116.56;;;20.58;43.71
49194;BME280;35029;50.804;12.866;2023-05-29T09:38:16;98129.09;;;20.69;42.04
49194;BME280;35029;50.804;12.866;2023-05-29T09:40:42;98142.19;;;20.83;42.51
49194;BME280;35029;50.804;12.866;2023-05-29T09:43:12;98139.63;;;20.93;43.49
49194;BME280;35029;50.804;12.866;2023-05-29T09:45:40;98142.84;;;20.95;41.08
49194;BME280;35029;50.804;12.866;2023-05-29T09:48:13;98145.25;;;20.91;42.49
49194;BME280;35029;50.804;12.866;2023-05-29T09:50:39;98149.63;;;20.98;40.38
49194;BME280;35029;50.804;12.866;2023-05-29T09:53:19;98147.06;;;20.86;39.47
49194;BME280;35029;50.804;12.866;2023-05-29T09:55:48;98151.34;;;21.09;40.59
49194;BME280;35029;50.804;12.866;2023-05-29T09:58:17;98146.28;;;21.13;40.44
49194;BME280;35029;50.804;12.866;2023-05-29T10:00:43;98142.13;;;21.27;38.98
49194;BME280;35029;50.804;12.866;2023-05-29T10:03:12;98151.72;;;21.45;41.10
49194;BME280;35029;50.804;12.866;2023-05-29T10:05:38;98121.66;;;21.31;37.76
49194;BME280;35029;50.804;12.866;2023-05-29T10:08:07;98137.84;;;21.58;39.73
49194;BME280;35029;50.804;12.866;2023-05-29T10:10:34;98133.63;;;21.45;39.90
49194;BME280;35029;50.804;12.866;2023-05-29T10:13:01;98142.19;;;21.65;40.91
49194;BME280;35029;50.804;12.866;2023-05-29T10:15:30;98133.56;;;21.63;37.73
49194;BME280;35029;50.804;12.866;2023-05-29T10:18:07;98130.25;;;21.93;39.58
49194;BME280;35029;50.804;12.866;2023-05-29T10:20:38;98144.97;;;22.18;41.01
49194;BME280;35029;50.804;12.866;2023-05-29T10:23:04;98149.41;;;22.34;39.09
49194;BME280;35029;50.804;12.866;2023-05-29T10:25:32;98099.53;;;21.99;36.69
49194;BME280;35029;50.804;12.866;2023-05-29T10:28:00;98133.72;;;22.31;37.23
49194;BME280;35029;50.804;12.866;2023-05-29T10:30:57;98138.41;;;22.46;36.30
49194;BME280;35029;50.804;12.866;2023-05-29T10:36:16;98132.84;;;22.20;35.89
49194;BME280;35029;50.804;12.866;2023-05-29T10:38:46;98140.31;;;22.45;38.25
49194;BME280;35029;50.804;12.866;2023-05-29T10:44:03;98128.47;;;22.57;37.18
49194;BME280;35029;50.804;12.866;2023-05-29T10:49:16;98126.22;;;22.38;36.76
49194;BME280;35029;50.804;12.866;2023-05-29T10:51:42;98131.72;;;22.64;36.79
49194;BME280;35029;50.804;12.866;2023-05-29T10:54:07;98132.31;;;22.82;36.03
49194;BME280;35029;50.804;12.866;2023-05-29T10:56:33;98119.34;;;22.84;34.62
49194;BME280;35029;50.804;12.866;2023-05-29T10:59:00;98135.69;;;23.15;35.35
49194;BME280;35029;50.804;12.866;2023-05-29T11:01:28;98126.75;;;23.14;33.06
49194;BME280;35029;50.804;12.866;2023-05-29T11:06:52;98115.72;;;23.46;34.81
49194;BME280;35029;50.804;12.866;2023-05-29T11:09:28;98119.47;;;23.66;36.33
49194;BME280;35029;50.804;12.866;2023-05-29T11:12:14;98111.88;;;23.84;34.08
49194;BME280;35029;50.804;12.866;2023-05-29T11:14:48;98097.28;;;23.69;36.26
49194;BME280;35029;50.804;12.866;2023-05-29T11:19:56;98104.59;;;23.69;36.71
49194;BME280;35029;50.804;12.866;2023-05-29T11:22:27;98112.97;;;23.72;33.28
49194;BME280;35029;50.804;12.866;2023-05-29T11:24:56;98111.31;;;24.02;34.80
49194;BME280;35029;50.804;12.866;2023-05-29T11:27:23;98117.00;;;24.06;32.89
49194;BME280;35029;50.804;12.866;2023-05-29T11:29:49;98107.53;;;24.19;34.23
49194;BME280;35029;50.804;12.866;2023-05-29T11:32:20;98112.09;;;24.28;35.80
49194;BME280;35029;50.804;12.866;2023-05-29T11:34:50;98112.66;;;24.20;33.43
49194;BME280;35029;50.804;12.866;2023-05-29T11:37:17;98106.59;;;24.44;34.07
49194;BME280;35029;50.804;12.866;2023-05-29T11:39:43;98090.91;;;24.41;33.92
49194;BME280;35029;50.804;12.866;2023-05-29T11:42:08;98113.16;;;24.27;33.01
49194;BME280;35029;50.804;12.866;2023-05-29T11:44:34;98092.34;;;24.23;34.30
49194;BME280;35029;50.804;12.866;2023-05-29T11:47:05;98106.25;;;24.61;34.13
49194;BME280;35029;50.804;12.866;2023-05-29T11:49:31;98106.50;;;24.75;31.01
49194;BME280;35029;50.804;12.866;2023-05-29T11:52:12;98107.44;;;25.00;34.13
49194;BME280;35029;50.804;12.866;2023-05-29T11:54:39;98108.31;;;25.29;33.01
49194;BME280;35029;50.804;12.866;2023-05-29T11:57:04;98096.78;;;25.08;34.48
49194;BME280;35029;50.804;12.866;2023-05-29T11:59:31;98107.81;;;25.22;33.23
49194;BME280;35029;50.804;12.866;2023-05-29T12:01:57;98110.59;;;25.12;31.42
49194;BME280;35029;50.804;12.866;2023-05-29T12:04:23;98116.06;;;24.52;30.83
49194;BME280;35029;50.804;12.866;2023-05-29T12:06:49;98105.03;;;24.22;30.83
49194;BME280;35029;50.804;12.866;2023-05-29T12:09:27;98109.38;;;24.23;31.81
49194;BME280;35029;50.804;12.866;2023-05-29T12:12:00;98102.16;;;24.74;33.02
49194;BME280;35029;50.804;12.866;2023-05-29T12:14:26;98078.81;;;24.78;32.07
49194;BME280;35029;50.804;12.866;2023-05-29T12:16:52;98105.50;;;25.05;29.22
49194;BME280;35029;50.804;12.866;2023-05-29T12:19:17;98087.44;;;25.25;33.14
49194;BME280;35029;50.804;12.866;2023-05-29T12:21:44;98097.69;;;25.38;30.01
49194;BME280;35029;50.804;12.866;2023-05-29T12:24:10;98095.56;;;25.35;30.26
49194;BME280;35029;50.804;12.866;2023-05-29T12:26:36;98105.13;;;24.77;29.21
49194;BME280;35029;50.804;12.866;2023-05-29T12:29:05;98103.34;;;25.07;31.96
49194;BME280;35029;50.804;12.866;2023-05-29T12:31:31;98087.50;;;25.20;31.44
49194;BME280;35029;50.804;12.866;2023-05-29T12:34:01;98108.78;;;25.42;30.53
49194;BME280;35029;50.804;12.866;2023-05-29T12:36:28;98105.31;;;25.36;30.09
49194;BME280;35029;50.804;12.866;2023-05-29T12:38:53;98109.75;;;25.56;30.61
49194;BME280;35029;50.804;12.866;2023-05-29T12:41:29;98073.59;;;25.66;31.50
49194;BME280;35029;50.804;12.866;2023-05-29T12:43:56;98098.72;;;26.06;31.20
49194;BME280;35029;50.804;12.866;2023-05-29T12:46:26;98103.91;;;25.73;28.04
49194;BME280;35029;50.804;12.866;2023-05-29T12:48:55;98083.47;;;25.81;30.47
49194;BME280;35029;50.804;12.866;2023-05-29T12:51:27;98094.22;;;24.88;31.99
49194;BME280;35029;50.804;12.866;2023-05-29T12:53:53;98082.31;;;24.13;32.60
49194;BME280;35029;50.804;12.866;2023-05-29T12:56:24;98093.97;;;24.19;33.67
49194;BME280;35029;50.804;12.866;2023-05-29T12:58:51;98082.41;;;24.68;30.80
49194;BME280;35029;50.804;12.866;2023-05-29T13:01:17;98070.75;;;24.68;31.42
49194;BME280;35029;50.804;12.866;2023-05-29T13:03:43;98055.75;;;24.86;29.95
49194;BME280;35029;50.804;12.866;2023-05-29T13:06:10;98065.56;;;25.16;30.53
49194;BME280;35029;50.804;12.866;2023-05-29T13:08:36;98078.34;;;25.50;29.50
49194;BME280;35029;50.804;12.866;2023-05-29T13:11:02;98071.31;;;25.44;28.71
49194;BME280;35029;50.804;12.866;2023-05-29T13:13:27;98084.56;;;25.51;28.32
49194;BME280;35029;50.804;12.866;2023-05-29T13:15:53;98086.09;;;25.22;29.53
49194;BME280;35029;50.804;12.866;2023-05-29T13:18:18;98077.69;;;25.63;29.94
49194;BME280;35029;50.804;12.866;2023-05-29T13:20:44;98080.84;;;25.41;28.63